Highland Lakes, New Jersey
Current Conditions -  °F | °C
As of 5:14 PM on Tuesday 21 Oct 2014 (Local Time) from KFWN Reporting Station
Overcast Overcast  
Wind Chill: 58°   Ceiling: 1500
Heat Index: 58°   Visibility: 10mi
Dew Point: 49°   Wind: 9mph
Humidity: 72%   Direction: 50°NE
Pressure: 29.86"   Gusts: NA
Location:  41.18°N, 74.47°W
Report Text: KFWN 212114Z AUTO 05008KT 10SM BKN015 BKN033 OVC110 14/09 A2986 RMK AO2 LTG DSNT S T01440094
Loading
Personal Weather Stations






























Interactive Weather Map
Tropical Storm Tracking
New forecast layout! Learn more

10-Day Weather Forecast

Advertisements
Track Severe Weather on mobile